RYR9954 LICC-LIRP
Flight info
| Callsign | RYR9954 |
|---|---|
| Flight time | 1h 17m |
| Altitude | 32000 |
| Route | BUDIN DCT UNIXO DCT GILIO/N0331F180 M729 ELB |
| Aircraft | B738/M-SDE3FGIJ1LRWY/SB1 |
Departure
| Time | 2026-05-08 13:55 |
|---|---|
| Airport | Catania-Fontanarossa Airport (LICC) |
Arrival
| Time | 2026-05-08 15:12 |
|---|---|
| Airport | Pisa International Airport (LIRP) |
| Time | Latitude | Longitude | Altitude | Speed | Heading |
|---|---|---|---|---|---|
| 2026-05-08 13:24 | 37.46982 | 15.06413 | 29 ft | 0 kts | 31° |
| 2026-05-08 13:47 | 37.46979 | 15.06411 | 29 ft | 2 kts | 31° |
| 2026-05-08 13:47 | 37.46966 | 15.06401 | 29 ft | 2 kts | 31° |
| 2026-05-08 13:47 | 37.46952 | 15.06390 | 29 ft | 2 kts | 31° |
| 2026-05-08 13:47 | 37.46937 | 15.06380 | 29 ft | 2 kts | 15° |
| 2026-05-08 13:48 | 37.46922 | 15.06379 | 30 ft | 1 kts | 311° |
| 2026-05-08 13:48 | 37.46918 | 15.06386 | 30 ft | 0 kts | 301° |
| 2026-05-08 13:50 | 37.46917 | 15.06382 | 30 ft | 1 kts | 268° |
| 2026-05-08 13:50 | 37.46896 | 15.06373 | 30 ft | 9 kts | 189° |
| 2026-05-08 13:50 | 37.46835 | 15.06366 | 33 ft | 8 kts | 201° |
| 2026-05-08 13:51 | 37.46815 | 15.06289 | 35 ft | 12 kts | 263° |
| 2026-05-08 13:51 | 37.46806 | 15.06187 | 38 ft | 12 kts | 263° |
| 2026-05-08 13:51 | 37.46797 | 15.06088 | 39 ft | 11 kts | 263° |
| 2026-05-08 13:51 | 37.46789 | 15.05991 | 39 ft | 12 kts | 264° |
| 2026-05-08 13:52 | 37.46778 | 15.05854 | 39 ft | 18 kts | 264° |
| 2026-05-08 13:52 | 37.46765 | 15.05696 | 43 ft | 18 kts | 264° |
| 2026-05-08 13:52 | 37.46754 | 15.05563 | 44 ft | 12 kts | 261° |
| 2026-05-08 13:52 | 37.46713 | 15.05479 | 43 ft | 12 kts | 214° |
| 2026-05-08 13:53 | 37.46680 | 15.05465 | 45 ft | 0 kts | 181° |
| 2026-05-08 13:54 | 37.46663 | 15.05466 | 45 ft | 8 kts | 174° |
| 2026-05-08 13:54 | 37.46589 | 15.05546 | 42 ft | 22 kts | 105° |
| 2026-05-08 13:54 | 37.46618 | 15.05916 | 41 ft | 81 kts | 84° |
| 2026-05-08 13:54 | 37.46703 | 15.06951 | 37 ft | 154 kts | 84° |
| 2026-05-08 13:55 | 37.46876 | 15.08448 | 499 ft | 184 kts | 79° |
| 2026-05-08 13:55 | 37.47163 | 15.10086 | 1320 ft | 205 kts | 75° |
| 2026-05-08 13:55 | 37.47618 | 15.13909 | 2433 ft | 231 kts | 82° |
| 2026-05-08 13:56 | 37.47869 | 15.15947 | 3012 ft | 240 kts | 81° |
| 2026-05-08 13:56 | 37.48148 | 15.18057 | 3584 ft | 248 kts | 80° |
| 2026-05-08 13:56 | 37.48445 | 15.20234 | 4166 ft | 256 kts | 80° |
| 2026-05-08 13:56 | 37.48753 | 15.22472 | 4762 ft | 263 kts | 80° |
| 2026-05-08 13:57 | 37.49069 | 15.24771 | 5310 ft | 270 kts | 80° |
| 2026-05-08 13:57 | 37.49409 | 15.27123 | 5894 ft | 276 kts | 75° |
| 2026-05-08 13:57 | 37.50308 | 15.29251 | 6439 ft | 278 kts | 43° |
| 2026-05-08 13:57 | 37.51813 | 15.30738 | 7011 ft | 276 kts | 27° |
| 2026-05-08 13:58 | 37.53463 | 15.32024 | 7549 ft | 283 kts | 25° |
| 2026-05-08 13:58 | 37.55173 | 15.33319 | 8106 ft | 292 kts | 25° |
| 2026-05-08 13:58 | 37.56957 | 15.34675 | 8673 ft | 305 kts | 25° |
| 2026-05-08 13:58 | 37.58798 | 15.36092 | 9284 ft | 313 kts | 25° |
| 2026-05-08 13:59 | 37.60657 | 15.37539 | 9871 ft | 315 kts | 25° |
| 2026-05-08 13:59 | 37.62528 | 15.39004 | 10421 ft | 317 kts | 25° |
| 2026-05-08 13:59 | 37.64428 | 15.40493 | 10991 ft | 327 kts | 25° |
| 2026-05-08 13:59 | 37.66393 | 15.42032 | 11578 ft | 337 kts | 25° |
| 2026-05-08 14:00 | 37.68389 | 15.43598 | 12163 ft | 347 kts | 25° |
| 2026-05-08 14:00 | 37.70533 | 15.45004 | 12735 ft | 345 kts | 8° |
| 2026-05-08 14:00 | 37.72864 | 15.45357 | 13358 ft | 334 kts | 347° |
| 2026-05-08 14:00 | 37.75088 | 15.44737 | 13951 ft | 327 kts | 332° |
| 2026-05-08 14:01 | 37.77232 | 15.43713 | 14499 ft | 332 kts | 330° |
| 2026-05-08 14:01 | 37.79393 | 15.42604 | 15052 ft | 339 kts | 330° |
| 2026-05-08 14:01 | 37.81594 | 15.41460 | 15611 ft | 345 kts | 330° |
| 2026-05-08 14:01 | 37.83834 | 15.40303 | 16178 ft | 351 kts | 330° |
| 2026-05-08 14:02 | 37.86114 | 15.39135 | 16761 ft | 356 kts | 330° |
| 2026-05-08 14:02 | 37.88429 | 15.37959 | 17348 ft | 360 kts | 330° |
| 2026-05-08 14:02 | 37.90774 | 15.36775 | 17950 ft | 364 kts | 330° |
| 2026-05-08 14:02 | 37.93147 | 15.35581 | 18516 ft | 368 kts | 331° |
| 2026-05-08 14:03 | 37.95536 | 15.34380 | 19047 ft | 371 kts | 331° |
| 2026-05-08 14:03 | 37.97947 | 15.33168 | 19599 ft | 375 kts | 331° |
| 2026-05-08 14:03 | 38.00380 | 15.31945 | 20146 ft | 378 kts | 331° |
| 2026-05-08 14:03 | 38.02835 | 15.30710 | 20716 ft | 381 kts | 332° |
| 2026-05-08 14:04 | 38.05306 | 15.29467 | 21286 ft | 383 kts | 331° |
| 2026-05-08 14:04 | 38.07788 | 15.28216 | 21843 ft | 385 kts | 332° |
| 2026-05-08 14:04 | 38.10280 | 15.26960 | 22456 ft | 386 kts | 332° |
| 2026-05-08 14:04 | 38.12790 | 15.25694 | 23081 ft | 389 kts | 332° |
| 2026-05-08 14:05 | 38.15302 | 15.24425 | 23653 ft | 390 kts | 332° |
| 2026-05-08 14:05 | 38.17824 | 15.23152 | 24183 ft | 389 kts | 332° |
| 2026-05-08 14:05 | 38.20341 | 15.21880 | 24712 ft | 389 kts | 332° |
| 2026-05-08 14:05 | 38.22855 | 15.20609 | 25248 ft | 389 kts | 332° |
| 2026-05-08 14:06 | 38.25364 | 15.19338 | 25793 ft | 387 kts | 331° |
| 2026-05-08 14:06 | 38.27862 | 15.18073 | 26351 ft | 386 kts | 331° |
| 2026-05-08 14:06 | 38.30354 | 15.16809 | 26915 ft | 384 kts | 331° |
| 2026-05-08 14:06 | 38.32794 | 15.15570 | 27496 ft | 382 kts | 331° |
| 2026-05-08 14:07 | 38.35256 | 15.14319 | 28078 ft | 380 kts | 331° |
| 2026-05-08 14:07 | 38.37701 | 15.13076 | 28689 ft | 377 kts | 330° |
| 2026-05-08 14:07 | 38.40126 | 15.11841 | 29299 ft | 374 kts | 330° |
| 2026-05-08 14:07 | 38.42532 | 15.10617 | 29929 ft | 370 kts | 330° |
| 2026-05-08 14:08 | 38.44912 | 15.09404 | 30478 ft | 366 kts | 330° |
| 2026-05-08 14:08 | 38.47253 | 15.08183 | 31021 ft | 359 kts | 326° |
| 2026-05-08 14:08 | 38.49291 | 15.06498 | 31569 ft | 343 kts | 315° |
| 2026-05-08 14:08 | 38.51162 | 15.04610 | 31939 ft | 345 kts | 315° |
| 2026-05-08 14:09 | 38.53061 | 15.02676 | 31965 ft | 353 kts | 315° |
| 2026-05-08 14:09 | 38.56992 | 14.98679 | 31983 ft | 369 kts | 315° |
| 2026-05-08 14:10 | 38.60405 | 14.95230 | 31984 ft | 382 kts | 316° |
| 2026-05-08 14:10 | 38.64653 | 14.90953 | 31983 ft | 396 kts | 316° |
| 2026-05-08 14:11 | 38.69021 | 14.86561 | 31968 ft | 401 kts | 316° |
| 2026-05-08 14:11 | 38.73414 | 14.82144 | 31963 ft | 402 kts | 316° |
| 2026-05-08 14:12 | 38.77805 | 14.77718 | 31962 ft | 401 kts | 316° |
| 2026-05-08 14:12 | 38.82194 | 14.73283 | 31978 ft | 406 kts | 316° |
| 2026-05-08 14:13 | 38.86685 | 14.68727 | 31975 ft | 417 kts | 316° |
| 2026-05-08 14:13 | 38.91289 | 14.64055 | 31968 ft | 426 kts | 316° |
| 2026-05-08 14:14 | 38.95946 | 14.59329 | 31956 ft | 427 kts | 316° |
| 2026-05-08 14:14 | 39.00608 | 14.54591 | 31959 ft | 427 kts | 316° |
| 2026-05-08 14:15 | 39.05232 | 14.49880 | 31960 ft | 427 kts | 316° |
| 2026-05-08 14:15 | 39.09911 | 14.45102 | 31958 ft | 426 kts | 316° |
| 2026-05-08 14:16 | 39.14520 | 14.40387 | 31953 ft | 426 kts | 316° |
| 2026-05-08 14:16 | 39.19149 | 14.35645 | 31954 ft | 425 kts | 316° |
| 2026-05-08 14:17 | 39.23799 | 14.30872 | 31959 ft | 424 kts | 315° |
| 2026-05-08 14:17 | 39.28383 | 14.26158 | 31951 ft | 424 kts | 315° |
| 2026-05-08 14:18 | 39.32987 | 14.21415 | 31951 ft | 423 kts | 315° |
| 2026-05-08 14:18 | 39.37581 | 14.16675 | 31953 ft | 423 kts | 315° |
| 2026-05-08 14:19 | 39.42172 | 14.11930 | 31953 ft | 422 kts | 315° |
| 2026-05-08 14:19 | 39.46756 | 14.07183 | 31953 ft | 422 kts | 315° |
| 2026-05-08 14:20 | 39.51345 | 14.02424 | 31956 ft | 422 kts | 315° |
| 2026-05-08 14:20 | 39.55925 | 13.97665 | 31942 ft | 422 kts | 315° |
| 2026-05-08 14:20 | 39.58223 | 13.95273 | 31789 ft | 424 kts | 315° |
| 2026-05-08 14:21 | 39.60521 | 13.92880 | 31672 ft | 424 kts | 315° |
| 2026-05-08 14:21 | 39.62822 | 13.90481 | 31549 ft | 424 kts | 315° |
| 2026-05-08 14:21 | 39.65125 | 13.88079 | 31419 ft | 425 kts | 315° |
| 2026-05-08 14:21 | 39.67431 | 13.85672 | 31312 ft | 425 kts | 315° |
| 2026-05-08 14:22 | 39.69735 | 13.83264 | 31186 ft | 426 kts | 315° |
| 2026-05-08 14:22 | 39.72014 | 13.80881 | 31068 ft | 426 kts | 315° |
| 2026-05-08 14:22 | 39.74321 | 13.78465 | 30947 ft | 427 kts | 315° |
| 2026-05-08 14:22 | 39.76637 | 13.76039 | 30831 ft | 427 kts | 315° |
| 2026-05-08 14:23 | 39.78951 | 13.73612 | 30712 ft | 428 kts | 315° |
| 2026-05-08 14:23 | 39.81269 | 13.71180 | 30593 ft | 428 kts | 315° |
| 2026-05-08 14:23 | 39.83589 | 13.68742 | 30481 ft | 429 kts | 315° |
| 2026-05-08 14:23 | 39.85910 | 13.66301 | 30364 ft | 430 kts | 315° |
| 2026-05-08 14:24 | 39.88235 | 13.63854 | 30247 ft | 430 kts | 315° |
| 2026-05-08 14:24 | 39.90566 | 13.61399 | 30132 ft | 431 kts | 315° |
| 2026-05-08 14:24 | 39.92898 | 13.58941 | 30015 ft | 431 kts | 315° |
| 2026-05-08 14:24 | 39.95233 | 13.56476 | 29887 ft | 432 kts | 315° |
| 2026-05-08 14:25 | 39.97569 | 13.54009 | 29750 ft | 433 kts | 315° |
| 2026-05-08 14:25 | 39.99907 | 13.51537 | 29617 ft | 433 kts | 315° |
| 2026-05-08 14:25 | 40.02247 | 13.49061 | 29484 ft | 434 kts | 315° |
| 2026-05-08 14:25 | 40.04591 | 13.46579 | 29346 ft | 434 kts | 315° |
| 2026-05-08 14:26 | 40.06937 | 13.44092 | 29216 ft | 435 kts | 315° |
| 2026-05-08 14:26 | 40.09286 | 13.41600 | 29077 ft | 435 kts | 315° |
| 2026-05-08 14:26 | 40.11631 | 13.39109 | 28969 ft | 435 kts | 315° |
| 2026-05-08 14:26 | 40.13980 | 13.36613 | 28866 ft | 435 kts | 315° |
| 2026-05-08 14:27 | 40.16331 | 13.34111 | 28762 ft | 435 kts | 315° |
| 2026-05-08 14:27 | 40.21032 | 13.29102 | 28741 ft | 437 kts | 315° |
| 2026-05-08 14:28 | 40.25749 | 13.24067 | 28747 ft | 437 kts | 315° |
| 2026-05-08 14:28 | 40.30460 | 13.19030 | 28745 ft | 437 kts | 315° |
| 2026-05-08 14:29 | 40.35170 | 13.13984 | 28747 ft | 437 kts | 315° |
| 2026-05-08 14:29 | 40.39876 | 13.08931 | 28749 ft | 437 kts | 315° |
| 2026-05-08 14:30 | 40.44582 | 13.03870 | 28757 ft | 437 kts | 315° |
| 2026-05-08 14:30 | 40.49288 | 12.98800 | 28759 ft | 437 kts | 315° |
| 2026-05-08 14:31 | 40.53991 | 12.93723 | 28761 ft | 438 kts | 315° |
| 2026-05-08 14:31 | 40.58663 | 12.88671 | 28759 ft | 438 kts | 315° |
| 2026-05-08 14:32 | 40.65708 | 12.81033 | 28760 ft | 437 kts | 315° |
| 2026-05-08 14:32 | 40.70401 | 12.75932 | 28759 ft | 437 kts | 315° |
| 2026-05-08 14:33 | 40.75092 | 12.70825 | 28761 ft | 437 kts | 315° |
| 2026-05-08 14:33 | 40.79791 | 12.65723 | 28761 ft | 437 kts | 315° |
| 2026-05-08 14:34 | 40.84522 | 12.60668 | 28764 ft | 438 kts | 316° |
| 2026-05-08 14:34 | 40.89259 | 12.55610 | 28762 ft | 438 kts | 316° |
| 2026-05-08 14:35 | 40.94146 | 12.50775 | 28758 ft | 444 kts | 324° |
| 2026-05-08 14:35 | 40.99804 | 12.47278 | 28579 ft | 451 kts | 329° |
| 2026-05-08 14:36 | 41.02677 | 12.45571 | 28144 ft | 452 kts | 329° |
| 2026-05-08 14:36 | 41.05535 | 12.43863 | 27847 ft | 451 kts | 329° |
| 2026-05-08 14:36 | 41.08393 | 12.42140 | 27541 ft | 453 kts | 329° |
| 2026-05-08 14:36 | 41.11264 | 12.40398 | 27245 ft | 454 kts | 329° |
| 2026-05-08 14:37 | 41.14135 | 12.38647 | 26942 ft | 455 kts | 329° |
| 2026-05-08 14:37 | 41.17010 | 12.36888 | 26647 ft | 455 kts | 329° |
| 2026-05-08 14:37 | 41.19886 | 12.35126 | 26358 ft | 456 kts | 329° |
| 2026-05-08 14:37 | 41.22769 | 12.33357 | 26060 ft | 456 kts | 329° |
| 2026-05-08 14:38 | 41.25652 | 12.31587 | 25773 ft | 457 kts | 329° |
| 2026-05-08 14:38 | 41.28499 | 12.29837 | 25493 ft | 457 kts | 329° |
| 2026-05-08 14:38 | 41.31381 | 12.28064 | 25198 ft | 457 kts | 329° |
| 2026-05-08 14:38 | 41.34262 | 12.26291 | 24925 ft | 456 kts | 329° |
| 2026-05-08 14:39 | 41.37132 | 12.24524 | 24650 ft | 454 kts | 329° |
| 2026-05-08 14:39 | 41.39994 | 12.22760 | 24373 ft | 452 kts | 329° |
| 2026-05-08 14:39 | 41.42838 | 12.21005 | 24097 ft | 449 kts | 329° |
| 2026-05-08 14:39 | 41.45668 | 12.19257 | 23829 ft | 447 kts | 329° |
| 2026-05-08 14:40 | 41.48479 | 12.17519 | 23561 ft | 445 kts | 329° |
| 2026-05-08 14:40 | 41.51278 | 12.15785 | 23239 ft | 443 kts | 330° |
| 2026-05-08 14:40 | 41.54070 | 12.14054 | 22923 ft | 442 kts | 330° |
| 2026-05-08 14:40 | 41.56851 | 12.12327 | 22600 ft | 441 kts | 330° |
| 2026-05-08 14:41 | 41.59630 | 12.10600 | 22287 ft | 441 kts | 330° |
| 2026-05-08 14:41 | 41.62409 | 12.08871 | 21980 ft | 441 kts | 330° |
| 2026-05-08 14:41 | 41.65192 | 12.07139 | 21683 ft | 441 kts | 330° |
| 2026-05-08 14:41 | 41.67981 | 12.05402 | 21389 ft | 442 kts | 330° |
| 2026-05-08 14:42 | 41.70768 | 12.03663 | 21068 ft | 442 kts | 331° |
| 2026-05-08 14:42 | 41.73557 | 12.01923 | 20769 ft | 442 kts | 331° |
| 2026-05-08 14:42 | 41.76338 | 12.00187 | 20477 ft | 441 kts | 331° |
| 2026-05-08 14:42 | 41.79116 | 11.98450 | 20189 ft | 440 kts | 332° |
| 2026-05-08 14:43 | 41.81890 | 11.96715 | 20045 ft | 440 kts | 332° |
| 2026-05-08 14:43 | 41.84663 | 11.94977 | 19743 ft | 440 kts | 332° |
| 2026-05-08 14:43 | 41.87432 | 11.93241 | 19460 ft | 439 kts | 332° |
| 2026-05-08 14:43 | 41.90195 | 11.91508 | 19185 ft | 438 kts | 332° |
| 2026-05-08 14:44 | 41.92943 | 11.89782 | 18945 ft | 436 kts | 332° |
| 2026-05-08 14:44 | 41.95687 | 11.88056 | 18709 ft | 435 kts | 333° |
| 2026-05-08 14:44 | 41.98421 | 11.86335 | 18464 ft | 434 kts | 333° |
| 2026-05-08 14:44 | 42.01152 | 11.84615 | 18204 ft | 433 kts | 333° |
| 2026-05-08 14:45 | 42.03880 | 11.82894 | 17923 ft | 433 kts | 333° |
| 2026-05-08 14:45 | 42.06611 | 11.81170 | 17645 ft | 432 kts | 333° |
| 2026-05-08 14:45 | 42.09294 | 11.79476 | 17370 ft | 431 kts | 333° |
| 2026-05-08 14:45 | 42.12006 | 11.77761 | 17099 ft | 430 kts | 333° |
| 2026-05-08 14:46 | 42.14712 | 11.76048 | 16821 ft | 429 kts | 334° |
| 2026-05-08 14:46 | 42.17410 | 11.74338 | 16561 ft | 428 kts | 334° |
| 2026-05-08 14:46 | 42.20100 | 11.72632 | 16306 ft | 427 kts | 334° |
| 2026-05-08 14:46 | 42.22781 | 11.70931 | 16054 ft | 426 kts | 334° |
| 2026-05-08 14:47 | 42.25457 | 11.69231 | 15806 ft | 425 kts | 334° |
| 2026-05-08 14:47 | 42.28127 | 11.67533 | 15557 ft | 424 kts | 334° |
| 2026-05-08 14:47 | 42.30790 | 11.65837 | 15317 ft | 423 kts | 334° |
| 2026-05-08 14:47 | 42.33448 | 11.64144 | 15091 ft | 422 kts | 334° |
| 2026-05-08 14:48 | 42.36099 | 11.62452 | 15019 ft | 421 kts | 334° |
| 2026-05-08 14:48 | 42.38745 | 11.60763 | 14992 ft | 420 kts | 334° |
| 2026-05-08 14:48 | 42.41388 | 11.59075 | 14988 ft | 421 kts | 334° |
| 2026-05-08 14:48 | 42.44035 | 11.57382 | 14987 ft | 421 kts | 334° |
| 2026-05-08 14:49 | 42.46681 | 11.55688 | 14994 ft | 420 kts | 334° |
| 2026-05-08 14:49 | 42.49324 | 11.53995 | 14994 ft | 420 kts | 334° |
| 2026-05-08 14:49 | 42.51965 | 11.52301 | 14993 ft | 420 kts | 334° |
| 2026-05-08 14:49 | 42.54600 | 11.50609 | 14993 ft | 420 kts | 334° |
| 2026-05-08 14:50 | 42.57243 | 11.48911 | 14997 ft | 420 kts | 334° |
| 2026-05-08 14:50 | 42.59881 | 11.47214 | 14992 ft | 420 kts | 334° |
| 2026-05-08 14:50 | 42.62521 | 11.45514 | 14998 ft | 420 kts | 334° |
| 2026-05-08 14:50 | 42.65162 | 11.43812 | 14999 ft | 421 kts | 334° |
| 2026-05-08 14:51 | 42.67772 | 11.42129 | 14887 ft | 422 kts | 334° |
| 2026-05-08 14:51 | 42.70444 | 11.40404 | 14666 ft | 414 kts | 334° |
| 2026-05-08 14:51 | 42.72968 | 11.38773 | 14409 ft | 400 kts | 334° |
| 2026-05-08 14:51 | 42.75441 | 11.37175 | 14149 ft | 387 kts | 334° |
| 2026-05-08 14:52 | 42.77835 | 11.35625 | 13907 ft | 375 kts | 334° |
| 2026-05-08 14:52 | 42.82420 | 11.32653 | 13394 ft | 355 kts | 334° |
| 2026-05-08 14:52 | 42.84626 | 11.31221 | 13153 ft | 347 kts | 334° |
| 2026-05-08 14:53 | 42.86790 | 11.29815 | 12920 ft | 343 kts | 334° |
| 2026-05-08 14:53 | 42.88944 | 11.28415 | 12678 ft | 341 kts | 334° |
| 2026-05-08 14:53 | 42.91082 | 11.27025 | 12456 ft | 340 kts | 334° |
| 2026-05-08 14:53 | 42.93214 | 11.25636 | 12224 ft | 339 kts | 334° |
| 2026-05-08 14:54 | 42.95336 | 11.24253 | 12001 ft | 337 kts | 334° |
| 2026-05-08 14:54 | 42.97449 | 11.22876 | 11777 ft | 336 kts | 334° |
| 2026-05-08 14:54 | 42.99555 | 11.21501 | 11553 ft | 335 kts | 334° |
| 2026-05-08 14:54 | 43.01657 | 11.20128 | 11329 ft | 334 kts | 334° |
| 2026-05-08 14:55 | 43.03745 | 11.18764 | 11126 ft | 332 kts | 334° |
| 2026-05-08 14:55 | 43.05809 | 11.17414 | 10886 ft | 326 kts | 335° |
| 2026-05-08 14:55 | 43.07830 | 11.16091 | 10656 ft | 318 kts | 335° |
| 2026-05-08 14:55 | 43.09804 | 11.14798 | 10437 ft | 311 kts | 335° |
| 2026-05-08 14:56 | 43.11735 | 11.13532 | 10223 ft | 305 kts | 335° |
| 2026-05-08 14:56 | 43.13625 | 11.12291 | 10014 ft | 299 kts | 335° |
| 2026-05-08 14:56 | 43.15488 | 11.11069 | 9781 ft | 294 kts | 335° |
| 2026-05-08 14:56 | 43.17319 | 11.09868 | 9546 ft | 289 kts | 335° |
| 2026-05-08 14:57 | 43.19123 | 11.08682 | 9368 ft | 286 kts | 335° |
| 2026-05-08 14:57 | 43.20905 | 11.07510 | 9175 ft | 283 kts | 335° |
| 2026-05-08 14:57 | 43.22674 | 11.06346 | 8996 ft | 282 kts | 335° |
| 2026-05-08 14:57 | 43.24437 | 11.05185 | 8814 ft | 280 kts | 335° |
| 2026-05-08 14:58 | 43.26166 | 11.04047 | 8634 ft | 279 kts | 335° |
| 2026-05-08 14:58 | 43.27914 | 11.02894 | 8457 ft | 278 kts | 335° |
| 2026-05-08 14:58 | 43.29660 | 11.01742 | 8285 ft | 278 kts | 335° |
| 2026-05-08 14:58 | 43.31401 | 11.00593 | 8116 ft | 278 kts | 335° |
| 2026-05-08 14:59 | 43.33140 | 10.99444 | 8027 ft | 277 kts | 335° |
| 2026-05-08 14:59 | 43.36557 | 10.97184 | 7994 ft | 269 kts | 335° |
| 2026-05-08 14:59 | 43.37699 | 10.96428 | 8004 ft | 270 kts | 335° |
| 2026-05-08 15:00 | 43.39967 | 10.94927 | 7991 ft | 275 kts | 335° |
| 2026-05-08 15:00 | 43.41132 | 10.94155 | 7988 ft | 275 kts | 335° |
| 2026-05-08 15:00 | 43.43404 | 10.92650 | 7988 ft | 273 kts | 335° |
| 2026-05-08 15:00 | 43.44559 | 10.91887 | 7995 ft | 273 kts | 335° |
| 2026-05-08 15:01 | 43.46267 | 10.90753 | 7996 ft | 273 kts | 334° |
| 2026-05-08 15:01 | 43.47973 | 10.89616 | 7996 ft | 272 kts | 334° |
| 2026-05-08 15:01 | 43.49656 | 10.88496 | 7981 ft | 272 kts | 334° |
| 2026-05-08 15:01 | 43.51363 | 10.87364 | 7994 ft | 271 kts | 334° |
| 2026-05-08 15:02 | 43.53068 | 10.86235 | 7987 ft | 272 kts | 335° |
| 2026-05-08 15:02 | 43.54775 | 10.85098 | 7972 ft | 274 kts | 334° |
| 2026-05-08 15:02 | 43.56500 | 10.83944 | 7806 ft | 277 kts | 334° |
| 2026-05-08 15:02 | 43.58243 | 10.82781 | 7595 ft | 280 kts | 334° |
| 2026-05-08 15:03 | 43.59993 | 10.81614 | 7380 ft | 278 kts | 334° |
| 2026-05-08 15:03 | 43.61719 | 10.80461 | 7147 ft | 274 kts | 334° |
| 2026-05-08 15:03 | 43.63422 | 10.79322 | 6945 ft | 270 kts | 335° |
| 2026-05-08 15:03 | 43.65106 | 10.78197 | 6713 ft | 268 kts | 335° |
| 2026-05-08 15:04 | 43.66776 | 10.77083 | 6508 ft | 265 kts | 335° |
| 2026-05-08 15:04 | 43.68430 | 10.75974 | 6298 ft | 264 kts | 335° |
| 2026-05-08 15:04 | 43.70081 | 10.74866 | 6062 ft | 264 kts | 335° |
| 2026-05-08 15:04 | 43.71722 | 10.73764 | 5832 ft | 262 kts | 335° |
| 2026-05-08 15:05 | 43.73363 | 10.72666 | 5619 ft | 262 kts | 335° |
| 2026-05-08 15:05 | 43.74998 | 10.71567 | 5363 ft | 260 kts | 335° |
| 2026-05-08 15:05 | 43.76620 | 10.70479 | 5155 ft | 259 kts | 335° |
| 2026-05-08 15:05 | 43.78225 | 10.69402 | 5036 ft | 252 kts | 335° |
| 2026-05-08 15:06 | 43.79754 | 10.68291 | 5018 ft | 248 kts | 326° |
| 2026-05-08 15:06 | 43.81020 | 10.66672 | 4837 ft | 247 kts | 314° |
| 2026-05-08 15:06 | 43.82155 | 10.64929 | 4636 ft | 239 kts | 313° |
| 2026-05-08 15:06 | 43.83253 | 10.63250 | 4444 ft | 231 kts | 313° |
| 2026-05-08 15:07 | 43.84318 | 10.61639 | 4252 ft | 222 kts | 314° |
| 2026-05-08 15:07 | 43.85351 | 10.60095 | 4081 ft | 216 kts | 314° |
| 2026-05-08 15:07 | 43.86357 | 10.58561 | 3881 ft | 214 kts | 308° |
| 2026-05-08 15:07 | 43.86864 | 10.56673 | 3711 ft | 210 kts | 271° |
| 2026-05-08 15:08 | 43.86511 | 10.54764 | 3642 ft | 204 kts | 238° |
| 2026-05-08 15:08 | 43.85684 | 10.53182 | 3576 ft | 204 kts | 230° |
| 2026-05-08 15:08 | 43.84642 | 10.51863 | 3445 ft | 204 kts | 210° |
| 2026-05-08 15:08 | 43.83451 | 10.50846 | 3294 ft | 198 kts | 211° |
| 2026-05-08 15:09 | 43.82301 | 10.49888 | 3135 ft | 188 kts | 208° |
| 2026-05-08 15:09 | 43.81200 | 10.48998 | 3010 ft | 180 kts | 208° |
| 2026-05-08 15:09 | 43.80115 | 10.48158 | 2913 ft | 180 kts | 200° |
| 2026-05-08 15:09 | 43.78958 | 10.47630 | 2708 ft | 175 kts | 200° |
| 2026-05-08 15:10 | 43.77822 | 10.47040 | 2324 ft | 172 kts | 198° |
| 2026-05-08 15:10 | 43.76741 | 10.46489 | 2019 ft | 164 kts | 199° |
| 2026-05-08 15:10 | 43.75680 | 10.45920 | 1695 ft | 161 kts | 200° |
| 2026-05-08 15:10 | 43.74669 | 10.45342 | 1467 ft | 159 kts | 200° |
| 2026-05-08 15:11 | 43.73656 | 10.44722 | 1256 ft | 160 kts | 205° |
| 2026-05-08 15:11 | 43.72693 | 10.43944 | 966 ft | 161 kts | 215° |
| 2026-05-08 15:11 | 43.71816 | 10.43016 | 740 ft | 158 kts | 220° |
| 2026-05-08 15:11 | 43.70950 | 10.42087 | 469 ft | 156 kts | 218° |
| 2026-05-08 15:12 | 43.70098 | 10.41206 | 240 ft | 150 kts | 219° |
| 2026-05-08 15:12 | 43.69272 | 10.40356 | 48 ft | 146 kts | 219° |
| 2026-05-08 15:12 | 43.68514 | 10.39566 | 12 ft | 115 kts | 218° |
| 2026-05-08 15:12 | 43.68141 | 10.39139 | 12 ft | 22 kts | 268° |
| 2026-05-08 15:13 | 43.68166 | 10.39071 | 12 ft | 0 kts | 305° |
| 2026-05-08 15:14 | 43.68170 | 10.39062 | 11 ft | 8 kts | 306° |
| 2026-05-08 15:14 | 43.68242 | 10.38975 | 8 ft | 16 kts | 360° |
| 2026-05-08 15:14 | 43.68359 | 10.39077 | 10 ft | 24 kts | 37° |
| 2026-05-08 15:14 | 43.68496 | 10.39217 | 11 ft | 24 kts | 36° |
| 2026-05-08 15:15 | 43.68641 | 10.39366 | 12 ft | 27 kts | 37° |
| 2026-05-08 15:15 | 43.68788 | 10.39513 | 11 ft | 25 kts | 38° |
| 2026-05-08 15:15 | 43.68922 | 10.39654 | 10 ft | 23 kts | 37° |
| 2026-05-08 15:15 | 43.69044 | 10.39781 | 12 ft | 17 kts | 37° |
| 2026-05-08 15:16 | 43.69125 | 10.39766 | 12 ft | 13 kts | 314° |
| 2026-05-08 15:16 | 43.69191 | 10.39671 | 13 ft | 14 kts | 341° |
| 2026-05-08 15:16 | 43.69284 | 10.39730 | 15 ft | 16 kts | 34° |
| 2026-05-08 15:16 | 43.69372 | 10.39822 | 13 ft | 16 kts | 40° |
| 2026-05-08 15:17 | 43.69452 | 10.39917 | 14 ft | 15 kts | 40° |
| 2026-05-08 15:17 | 43.69529 | 10.40007 | 14 ft | 13 kts | 40° |
| 2026-05-08 15:17 | 43.69588 | 10.40034 | 14 ft | 7 kts | 354° |
| 2026-05-08 15:17 | 43.69638 | 10.40027 | 14 ft | 7 kts | 350° |
| 2026-05-08 15:18 | 43.69687 | 10.40023 | 14 ft | 7 kts | 5° |
| 2026-05-08 15:18 | 43.69724 | 10.40002 | 14 ft | 5 kts | 298° |
| 2026-05-08 15:18 | 43.69745 | 10.39970 | 14 ft | 5 kts | 347° |
| 2026-05-08 15:18 | 43.69765 | 10.39972 | 14 ft | 0 kts | 7° |